sensor_id;sensor_type;location;lat;lon;timestamp;pressure;altitude;pressure_sealevel;temperature;humidity
45323;BME280;31382;50.200;8.674;2023-03-26T00:03:06;99656.97;;;10.69;61.94
45323;BME280;31382;50.200;8.674;2023-03-26T00:08:08;99656.50;;;10.65;62.20
45323;BME280;31382;50.200;8.674;2023-03-26T00:13:10;99663.34;;;10.68;62.14
45323;BME280;31382;50.200;8.674;2023-03-26T00:18:11;99664.84;;;10.70;61.88
45323;BME280;31382;50.200;8.674;2023-03-26T00:23:13;99668.16;;;10.73;61.80
45323;BME280;31382;50.200;8.674;2023-03-26T00:28:14;99677.88;;;10.74;61.79
45323;BME280;31382;50.200;8.674;2023-03-26T00:33:17;99667.75;;;10.76;62.05
45323;BME280;31382;50.200;8.674;2023-03-26T00:38:20;99663.63;;;10.73;62.31
45323;BME280;31382;50.200;8.674;2023-03-26T00:43:22;99671.94;;;10.78;62.01
45323;BME280;31382;50.200;8.674;2023-03-26T00:48:24;99663.66;;;10.80;62.00
45323;BME280;31382;50.200;8.674;2023-03-26T00:53:46;99657.97;;;10.68;62.24
45323;BME280;31382;50.200;8.674;2023-03-26T00:58:48;99645.13;;;10.63;62.66
45323;BME280;31382;50.200;8.674;2023-03-26T01:03:50;99641.81;;;10.61;62.66
45323;BME280;31382;50.200;8.674;2023-03-26T01:09:18;99639.91;;;10.55;62.54
45323;BME280;31382;50.200;8.674;2023-03-26T01:14:24;99639.63;;;10.50;62.83
45323;BME280;31382;50.200;8.674;2023-03-26T01:19:31;99644.19;;;10.49;62.78
45323;BME280;31382;50.200;8.674;2023-03-26T01:24:39;99631.75;;;10.48;63.10
45323;BME280;31382;50.200;8.674;2023-03-26T01:30:04;99633.94;;;10.38;63.40
45323;BME280;31382;50.200;8.674;2023-03-26T01:35:28;99627.56;;;10.39;63.37
45323;BME280;31382;50.200;8.674;2023-03-26T01:40:41;99625.50;;;10.41;63.19
45323;BME280;31382;50.200;8.674;2023-03-26T01:45:48;99617.38;;;10.35;63.48
45323;BME280;31382;50.200;8.674;2023-03-26T01:50:49;99601.25;;;10.35;63.73
45323;BME280;31382;50.200;8.674;2023-03-26T01:56:27;99594.88;;;10.36;63.62
45323;BME280;31382;50.200;8.674;2023-03-26T02:07:05;99586.28;;;10.25;63.84
45323;BME280;31382;50.200;8.674;2023-03-26T02:12:09;99581.09;;;10.24;63.99
45323;BME280;31382;50.200;8.674;2023-03-26T02:17:11;99579.03;;;10.26;63.63
45323;BME280;31382;50.200;8.674;2023-03-26T02:22:12;99575.72;;;10.24;63.99
45323;BME280;31382;50.200;8.674;2023-03-26T02:27:16;99557.84;;;10.31;64.17
45323;BME280;31382;50.200;8.674;2023-03-26T02:32:18;99558.38;;;10.26;63.96
45323;BME280;31382;50.200;8.674;2023-03-26T02:37:20;99559.88;;;10.29;63.74
45323;BME280;31382;50.200;8.674;2023-03-26T02:42:21;99548.94;;;10.30;63.48
45323;BME280;31382;50.200;8.674;2023-03-26T02:47:23;99547.44;;;10.28;63.66
45323;BME280;31382;50.200;8.674;2023-03-26T02:52:24;99543.44;;;10.17;64.32
45323;BME280;31382;50.200;8.674;2023-03-26T02:57:25;99541.59;;;10.18;64.22
45323;BME280;31382;50.200;8.674;2023-03-26T03:02:27;99528.94;;;10.11;64.47
45323;BME280;31382;50.200;8.674;2023-03-26T03:07:29;99522.97;;;10.16;64.30
45323;BME280;31382;50.200;8.674;2023-03-26T03:12:31;99522.16;;;10.16;64.41
45323;BME280;31382;50.200;8.674;2023-03-26T03:17:32;99518.00;;;10.13;64.55
45323;BME280;31382;50.200;8.674;2023-03-26T03:22:34;99511.41;;;10.16;64.26
45323;BME280;31382;50.200;8.674;2023-03-26T03:27:36;99509.09;;;10.12;64.34
45323;BME280;31382;50.200;8.674;2023-03-26T03:32:39;99509.16;;;10.19;64.24
45323;BME280;31382;50.200;8.674;2023-03-26T03:37:40;99486.25;;;10.23;64.04
45323;BME280;31382;50.200;8.674;2023-03-26T03:42:42;99486.44;;;10.22;64.27
45323;BME280;31382;50.200;8.674;2023-03-26T03:47:43;99488.50;;;10.20;64.33
45323;BME280;31382;50.200;8.674;2023-03-26T03:52:45;99490.22;;;10.27;64.21
45323;BME280;31382;50.200;8.674;2023-03-26T03:57:46;99467.78;;;10.35;64.28
45323;BME280;31382;50.200;8.674;2023-03-26T04:02:48;99459.13;;;10.40;64.02
45323;BME280;31382;50.200;8.674;2023-03-26T04:07:49;99455.44;;;10.41;64.13
45323;BME280;31382;50.200;8.674;2023-03-26T04:12:51;99442.75;;;10.35;64.38
45323;BME280;31382;50.200;8.674;2023-03-26T04:17:52;99443.00;;;10.40;64.48
45323;BME280;31382;50.200;8.674;2023-03-26T04:22:53;99440.81;;;10.28;65.08
45323;BME280;31382;50.200;8.674;2023-03-26T04:27:55;99441.13;;;10.12;65.63
45323;BME280;31382;50.200;8.674;2023-03-26T04:33:00;99433.75;;;9.92;66.41
45323;BME280;31382;50.200;8.674;2023-03-26T04:38:04;99427.59;;;9.99;66.42
45323;BME280;31382;50.200;8.674;2023-03-26T04:43:11;99417.06;;;9.97;66.47
45323;BME280;31382;50.200;8.674;2023-03-26T04:48:12;99400.09;;;9.90;67.06
45323;BME280;31382;50.200;8.674;2023-03-26T04:53:17;99392.81;;;9.84;67.47
45323;BME280;31382;50.200;8.674;2023-03-26T04:58:21;99376.28;;;9.80;67.51
45323;BME280;31382;50.200;8.674;2023-03-26T05:03:33;99375.22;;;9.81;67.25
45323;BME280;31382;50.200;8.674;2023-03-26T05:08:34;99361.25;;;9.86;67.52
45323;BME280;31382;50.200;8.674;2023-03-26T05:13:36;99342.28;;;9.94;67.54
45323;BME280;31382;50.200;8.674;2023-03-26T05:18:38;99331.84;;;10.06;67.38
45323;BME280;31382;50.200;8.674;2023-03-26T05:23:39;99342.78;;;10.11;67.37
45323;BME280;31382;50.200;8.674;2023-03-26T05:28:41;99329.81;;;10.15;67.43
45323;BME280;31382;50.200;8.674;2023-03-26T05:33:42;99316.19;;;10.16;67.36
45323;BME280;31382;50.200;8.674;2023-03-26T05:38:44;99306.25;;;10.17;67.62
45323;BME280;31382;50.200;8.674;2023-03-26T05:43:50;99290.41;;;10.28;67.35
45323;BME280;31382;50.200;8.674;2023-03-26T05:48:51;99279.13;;;10.33;67.05
45323;BME280;31382;50.200;8.674;2023-03-26T05:53:54;99270.25;;;10.39;67.33
45323;BME280;31382;50.200;8.674;2023-03-26T05:58:55;99251.88;;;10.43;67.06
45323;BME280;31382;50.200;8.674;2023-03-26T06:03:57;99260.75;;;10.50;67.17
45323;BME280;31382;50.200;8.674;2023-03-26T06:08:58;99259.50;;;10.46;67.55
45323;BME280;31382;50.200;8.674;2023-03-26T06:14:03;99260.94;;;10.42;67.47
45323;BME280;31382;50.200;8.674;2023-03-26T06:19:04;99256.63;;;10.41;67.75
45323;BME280;31382;50.200;8.674;2023-03-26T06:24:06;99243.56;;;10.31;68.41
45323;BME280;31382;50.200;8.674;2023-03-26T06:29:07;99233.69;;;10.45;67.71
45323;BME280;31382;50.200;8.674;2023-03-26T06:34:09;99222.94;;;10.58;67.69
45323;BME280;31382;50.200;8.674;2023-03-26T06:39:10;99215.13;;;10.63;67.79
45323;BME280;31382;50.200;8.674;2023-03-26T06:44:12;99212.03;;;10.80;67.94
45323;BME280;31382;50.200;8.674;2023-03-26T06:49:13;99209.13;;;10.88;67.70
45323;BME280;31382;50.200;8.674;2023-03-26T06:54:15;99198.19;;;10.83;68.12
45323;BME280;31382;50.200;8.674;2023-03-26T06:59:16;99196.75;;;10.80;68.25
45323;BME280;31382;50.200;8.674;2023-03-26T07:04:18;99192.38;;;10.66;68.63
45323;BME280;31382;50.200;8.674;2023-03-26T07:09:19;99194.00;;;10.60;68.63
45323;BME280;31382;50.200;8.674;2023-03-26T07:14:21;99195.88;;;10.60;68.69
45323;BME280;31382;50.200;8.674;2023-03-26T07:19:22;99191.56;;;10.59;68.49
45323;BME280;31382;50.200;8.674;2023-03-26T07:24:24;99186.38;;;10.57;68.77
45323;BME280;31382;50.200;8.674;2023-03-26T07:29:33;99186.16;;;10.72;68.52
45323;BME280;31382;50.200;8.674;2023-03-26T07:40:42;99157.22;;;10.47;69.06
45323;BME280;31382;50.200;8.674;2023-03-26T07:45:46;99143.19;;;10.59;69.26
45323;BME280;31382;50.200;8.674;2023-03-26T07:50:48;99140.47;;;10.52;69.62
45323;BME280;31382;50.200;8.674;2023-03-26T07:56:00;99129.50;;;10.34;70.46
45323;BME280;31382;50.200;8.674;2023-03-26T08:06:47;99120.03;;;10.58;71.08
45323;BME280;31382;50.200;8.674;2023-03-26T08:12:02;99107.84;;;10.55;71.42
45323;BME280;31382;50.200;8.674;2023-03-26T08:17:13;99108.25;;;10.59;71.48
45323;BME280;31382;50.200;8.674;2023-03-26T08:22:30;99105.97;;;10.62;71.69
45323;BME280;31382;50.200;8.674;2023-03-26T08:27:46;99103.09;;;10.50;72.09
45323;BME280;31382;50.200;8.674;2023-03-26T08:32:58;99100.19;;;10.59;72.37
45323;BME280;31382;50.200;8.674;2023-03-26T08:38:00;99102.66;;;10.67;72.25
45323;BME280;31382;50.200;8.674;2023-03-26T08:59:17;99082.38;;;10.78;72.83
45323;BME280;31382;50.200;8.674;2023-03-26T09:04:49;99081.78;;;10.56;73.45
45323;BME280;31382;50.200;8.674;2023-03-26T09:20:40;99048.06;;;10.80;73.95
45323;BME280;31382;50.200;8.674;2023-03-26T09:42:07;99031.75;;;10.08;76.33
45323;BME280;31382;50.200;8.674;2023-03-26T09:53:05;99018.91;;;9.70;76.50
45323;BME280;31382;50.200;8.674;2023-03-26T10:03:58;99026.75;;;9.78;75.97
45323;BME280;31382;50.200;8.674;2023-03-26T10:14:27;99005.72;;;10.02;75.85
45323;BME280;31382;50.200;8.674;2023-03-26T10:25:16;98999.09;;;10.11;76.18
45323;BME280;31382;50.200;8.674;2023-03-26T10:46:34;98985.06;;;10.02;76.41
45323;BME280;31382;50.200;8.674;2023-03-26T10:51:50;98977.63;;;10.18;75.90
45323;BME280;31382;50.200;8.674;2023-03-26T10:56:54;98963.19;;;10.39;75.76
45323;BME280;31382;50.200;8.674;2023-03-26T11:02:21;98950.56;;;10.46;75.49
45323;BME280;31382;50.200;8.674;2023-03-26T11:07:41;98957.38;;;10.42;75.75
45323;BME280;31382;50.200;8.674;2023-03-26T11:13:06;98959.06;;;10.43;76.09
45323;BME280;31382;50.200;8.674;2023-03-26T11:18:42;98950.94;;;10.56;75.55
45323;BME280;31382;50.200;8.674;2023-03-26T11:23:54;98931.00;;;10.90;75.65
45323;BME280;31382;50.200;8.674;2023-03-26T11:29:11;98930.84;;;11.24;75.63
45323;BME280;31382;50.200;8.674;2023-03-26T11:34:44;98926.06;;;11.26;75.13
45323;BME280;31382;50.200;8.674;2023-03-26T11:39:51;98939.31;;;11.21;75.08
45323;BME280;31382;50.200;8.674;2023-03-26T11:44:59;98933.53;;;11.17;75.59
45323;BME280;31382;50.200;8.674;2023-03-26T11:50:04;98929.38;;;11.28;75.08
45323;BME280;31382;50.200;8.674;2023-03-26T11:55:11;98914.56;;;11.44;75.60
45323;BME280;31382;50.200;8.674;2023-03-26T12:00:16;98912.88;;;11.75;75.97
45323;BME280;31382;50.200;8.674;2023-03-26T12:05:21;98910.78;;;12.08;75.86
45323;BME280;31382;50.200;8.674;2023-03-26T12:10:36;98908.53;;;12.05;75.79
45323;BME280;31382;50.200;8.674;2023-03-26T12:15:42;98884.06;;;12.07;76.60
45323;BME280;31382;50.200;8.674;2023-03-26T12:20:44;98880.88;;;12.35;76.48
45323;BME280;31382;50.200;8.674;2023-03-26T12:26:04;98872.31;;;12.75;75.08
45323;BME280;31382;50.200;8.674;2023-03-26T12:31:06;98869.19;;;13.08;74.69
45323;BME280;31382;50.200;8.674;2023-03-26T12:36:17;98859.78;;;13.29;74.51
45323;BME280;31382;50.200;8.674;2023-03-26T12:41:20;98855.16;;;13.60;74.12
45323;BME280;31382;50.200;8.674;2023-03-26T12:47:27;98850.81;;;13.59;74.08
45323;BME280;31382;50.200;8.674;2023-03-26T12:52:59;98839.91;;;13.66;73.01
45323;BME280;31382;50.200;8.674;2023-03-26T13:03:37;98826.78;;;13.27;72.05
45323;BME280;31382;50.200;8.674;2023-03-26T13:08:57;98824.75;;;13.23;72.25
45323;BME280;31382;50.200;8.674;2023-03-26T13:19:33;98835.69;;;13.28;72.09
45323;BME280;31382;50.200;8.674;2023-03-26T13:25:08;98818.41;;;13.59;71.25
45323;BME280;31382;50.200;8.674;2023-03-26T13:30:30;98803.72;;;14.14;70.06
45323;BME280;31382;50.200;8.674;2023-03-26T13:35:48;98796.44;;;14.55;68.63
45323;BME280;31382;50.200;8.674;2023-03-26T13:46:45;98775.19;;;14.87;66.33
45323;BME280;31382;50.200;8.674;2023-03-26T13:51:54;98763.66;;;15.43;64.77
45323;BME280;31382;50.200;8.674;2023-03-26T14:02:48;98756.00;;;15.40;63.13
45323;BME280;31382;50.200;8.674;2023-03-26T14:18:32;98784.34;;;12.93;68.43
45323;BME280;31382;50.200;8.674;2023-03-26T14:24:08;98763.59;;;13.47;67.75
45323;BME280;31382;50.200;8.674;2023-03-26T14:40:46;98749.00;;;14.76;64.07
45323;BME280;31382;50.200;8.674;2023-03-26T14:46:23;98751.34;;;14.73;62.83
45323;BME280;31382;50.200;8.674;2023-03-26T15:13:37;98727.94;;;14.78;57.06
45323;BME280;31382;50.200;8.674;2023-03-26T15:19:10;98719.69;;;14.56;57.33
45323;BME280;31382;50.200;8.674;2023-03-26T15:24:49;98720.41;;;14.52;57.56
45323;BME280;31382;50.200;8.674;2023-03-26T15:35:20;98740.50;;;14.56;58.52
45323;BME280;31382;50.200;8.674;2023-03-26T15:51:44;98844.69;;;10.67;66.88
45323;BME280;31382;50.200;8.674;2023-03-26T16:02:29;98898.09;;;9.23;71.00
45323;BME280;31382;50.200;8.674;2023-03-26T16:50:53;98897.72;;;9.46;74.00
45323;BME280;31382;50.200;8.674;2023-03-26T16:56:22;98901.22;;;9.47;74.11
45323;BME280;31382;50.200;8.674;2023-03-26T17:01:41;98903.69;;;9.42;74.79
45323;BME280;31382;50.200;8.674;2023-03-26T17:12:32;98905.16;;;9.51;74.80
45323;BME280;31382;50.200;8.674;2023-03-26T17:18:28;98902.69;;;9.63;74.79
45323;BME280;31382;50.200;8.674;2023-03-26T17:23:26;98923.53;;;9.74;74.65
45323;BME280;31382;50.200;8.674;2023-03-26T17:29:41;98931.16;;;9.77;74.85
45323;BME280;31382;50.200;8.674;2023-03-26T17:44:42;98935.09;;;9.95;74.51
45323;BME280;31382;50.200;8.674;2023-03-26T17:49:47;98945.22;;;9.99;74.76
45323;BME280;31382;50.200;8.674;2023-03-26T17:54:53;98948.72;;;10.00;75.14
45323;BME280;31382;50.200;8.674;2023-03-26T17:59:58;98953.47;;;9.91;75.43
45323;BME280;31382;50.200;8.674;2023-03-26T18:05:00;98964.19;;;9.64;76.14
45323;BME280;31382;50.200;8.674;2023-03-26T18:20:36;98956.63;;;9.13;77.74
45323;BME280;31382;50.200;8.674;2023-03-26T18:25:38;98957.06;;;9.17;77.26
45323;BME280;31382;50.200;8.674;2023-03-26T18:30:46;98964.09;;;9.24;77.35
45323;BME280;31382;50.200;8.674;2023-03-26T18:35:50;98964.72;;;9.26;77.03
45323;BME280;31382;50.200;8.674;2023-03-26T18:40:54;98963.72;;;9.41;76.18
45323;BME280;31382;50.200;8.674;2023-03-26T18:45:56;98969.31;;;9.46;76.37
45323;BME280;31382;50.200;8.674;2023-03-26T18:51:03;98953.00;;;9.47;76.32
45323;BME280;31382;50.200;8.674;2023-03-26T18:56:34;98962.91;;;9.47;76.48
45323;BME280;31382;50.200;8.674;2023-03-26T19:01:36;98970.97;;;9.53;76.04
45323;BME280;31382;50.200;8.674;2023-03-26T19:06:39;98981.47;;;9.42;76.81
45323;BME280;31382;50.200;8.674;2023-03-26T19:11:42;98979.41;;;9.44;76.73
45323;BME280;31382;50.200;8.674;2023-03-26T19:16:48;98983.13;;;9.49;76.38
45323;BME280;31382;50.200;8.674;2023-03-26T19:21:54;98981.50;;;9.55;76.44
45323;BME280;31382;50.200;8.674;2023-03-26T19:26:59;98979.63;;;9.42;77.02
45323;BME280;31382;50.200;8.674;2023-03-26T19:32:15;98988.28;;;9.44;76.88
45323;BME280;31382;50.200;8.674;2023-03-26T19:37:20;98987.63;;;9.36;77.45
45323;BME280;31382;50.200;8.674;2023-03-26T19:42:30;98992.81;;;9.37;77.41
45323;BME280;31382;50.200;8.674;2023-03-26T19:47:45;98994.44;;;9.31;77.70
45323;BME280;31382;50.200;8.674;2023-03-26T19:58:17;99009.50;;;9.32;77.73
45323;BME280;31382;50.200;8.674;2023-03-26T20:03:24;99008.50;;;9.40;77.61
45323;BME280;31382;50.200;8.674;2023-03-26T20:08:26;99019.69;;;9.57;77.00
45323;BME280;31382;50.200;8.674;2023-03-26T20:13:28;99019.28;;;9.60;77.05
45323;BME280;31382;50.200;8.674;2023-03-26T20:18:31;99030.44;;;9.64;77.37
45323;BME280;31382;50.200;8.674;2023-03-26T20:23:33;99041.56;;;9.61;76.97
45323;BME280;31382;50.200;8.674;2023-03-26T20:28:34;99047.31;;;9.58;77.23
45323;BME280;31382;50.200;8.674;2023-03-26T20:33:49;99053.47;;;9.38;77.71
45323;BME280;31382;50.200;8.674;2023-03-26T20:38:50;99058.41;;;9.35;77.49
45323;BME280;31382;50.200;8.674;2023-03-26T20:43:52;99069.50;;;9.25;77.33
45323;BME280;31382;50.200;8.674;2023-03-26T20:48:53;99076.09;;;9.22;77.27
45323;BME280;31382;50.200;8.674;2023-03-26T20:53:57;99078.72;;;9.16;77.21
45323;BME280;31382;50.200;8.674;2023-03-26T20:58:58;99094.59;;;9.10;77.13
45323;BME280;31382;50.200;8.674;2023-03-26T21:04:12;99106.13;;;9.11;76.94
45323;BME280;31382;50.200;8.674;2023-03-26T21:09:17;99115.78;;;9.05;76.71
45323;BME280;31382;50.200;8.674;2023-03-26T21:14:26;99126.47;;;8.99;77.13
45323;BME280;31382;50.200;8.674;2023-03-26T21:19:30;99149.09;;;8.89;77.27
45323;BME280;31382;50.200;8.674;2023-03-26T21:29:59;99166.59;;;8.64;76.87
45323;BME280;31382;50.200;8.674;2023-03-26T21:35:01;99182.03;;;8.62;76.95
45323;BME280;31382;50.200;8.674;2023-03-26T21:40:05;99187.41;;;8.62;76.80
45323;BME280;31382;50.200;8.674;2023-03-26T21:45:26;99193.13;;;8.59;76.73
45323;BME280;31382;50.200;8.674;2023-03-26T21:50:28;99203.66;;;8.60;76.37
45323;BME280;31382;50.200;8.674;2023-03-26T21:55:37;99218.13;;;8.66;76.06
45323;BME280;31382;50.200;8.674;2023-03-26T22:06:02;99242.91;;;8.53;76.63
45323;BME280;31382;50.200;8.674;2023-03-26T22:11:09;99257.53;;;8.50;76.21
45323;BME280;31382;50.200;8.674;2023-03-26T22:16:11;99285.06;;;8.44;76.19
45323;BME280;31382;50.200;8.674;2023-03-26T22:21:13;99309.25;;;8.36;75.74
45323;BME280;31382;50.200;8.674;2023-03-26T22:26:14;99310.53;;;8.25;75.94
45323;BME280;31382;50.200;8.674;2023-03-26T22:31:16;99327.91;;;8.14;76.04
45323;BME280;31382;50.200;8.674;2023-03-26T22:36:18;99334.56;;;8.19;75.23
45323;BME280;31382;50.200;8.674;2023-03-26T22:41:24;99345.28;;;8.19;74.93
45323;BME280;31382;50.200;8.674;2023-03-26T22:46:25;99343.16;;;8.14;74.90
45323;BME280;31382;50.200;8.674;2023-03-26T22:51:27;99359.56;;;8.11;75.16
45323;BME280;31382;50.200;8.674;2023-03-26T22:56:29;99367.53;;;8.04;75.40
45323;BME280;31382;50.200;8.674;2023-03-26T23:01:31;99392.44;;;8.05;74.69
45323;BME280;31382;50.200;8.674;2023-03-26T23:06:32;99403.41;;;7.95;75.25
45323;BME280;31382;50.200;8.674;2023-03-26T23:11:34;99417.44;;;7.97;75.12
45323;BME280;31382;50.200;8.674;2023-03-26T23:16:35;99433.09;;;7.85;74.89
45323;BME280;31382;50.200;8.674;2023-03-26T23:21:38;99439.34;;;7.78;74.53
45323;BME280;31382;50.200;8.674;2023-03-26T23:26:40;99453.66;;;7.85;74.85
45323;BME280;31382;50.200;8.674;2023-03-26T23:31:51;99468.59;;;7.79;75.03
45323;BME280;31382;50.200;8.674;2023-03-26T23:36:54;99472.81;;;7.73;75.42
45323;BME280;31382;50.200;8.674;2023-03-26T23:41:55;99493.94;;;7.68;75.41
45323;BME280;31382;50.200;8.674;2023-03-26T23:46:57;99505.91;;;7.49;75.48
45323;BME280;31382;50.200;8.674;2023-03-26T23:52:00;99525.22;;;7.37;74.82
45323;BME280;31382;50.200;8.674;2023-03-26T23:57:02;99524.09;;;7.31;75.69
